Catharina 1 — 9H4209 — position and weather

sailwx.info

Track history (hours):
 
Tides and Currents Weather Stations Pressure Air Temp Water Temp Dewpoint Dewpoint Depression Visibility Wind Speed Wind Dir Waves Ship Positions

Catharina 1

Last reported at 2017-Sep-20 00:53 UTC. Time now 2017-Sep-24 03:35 UTC.
Position N 37°33' E 025°55'.

Length 85 m.

Type: Cargo ship. MMSI: 256686000.

Date/timePositionNaut miles runAvg speedWind from/ knotsBaromVisibWave heightAir tempDewpointWater temp
2017-Sep-20 00:53N 37°33' E 025°55'4 9.3
2017-Sep-20 00:30N 37°30' E 025°54'4 8.8
2017-Sep-20 00:01N 37°25' E 025°52'5 9.1
2017-Sep-19 23:31N 37°21' E 025°50'4 9.0
2017-Sep-19 23:01N 37°17' E 025°49'4 8.9
2017-Sep-19 22:31N 37°13' E 025°47'5 9.4
2017-Sep-19 22:01N 37°08' E 025°45'  
2017-Sep-12 23:51N 37°07' E 025°45'3 8.7
2017-Sep-12 23:30N 37°10' E 025°45'4 8.7
2017-Sep-12 23:00N 37°15' E 025°45'4 8.7
2017-Sep-12 22:30N 37°19' E 025°45'14 8.3
2017-Sep-12 20:48N 37°33' E 025°44'3 8.1
2017-Sep-12 20:29N 37°36' E 025°44'4 8.0
2017-Sep-12 20:00N 37°39' E 025°44'219 7.0
2017-Sep-11 12:42N 40°50' E 028°03'6 7.8
2017-Sep-11 11:59N 40°50' E 028°10'5 7.9
2017-Sep-11 11:24N 40°51' E 028°16'3 7.9
2017-Sep-11 11:00N 40°52' E 028°20'4 8.0
2017-Sep-11 10:29N 40°52' E 028°26'4 8.1
2017-Sep-11 10:00N 40°53' E 028°31'19 4.3
2017-Sep-11 05:29N 40°58' E 028°55'16 8.5
2017-Sep-11 03:33N 41°12' E 029°07'2 8.5
2017-Sep-11 03:22N 41°14' E 029°07'3 7.5
2017-Sep-11 03:00N 41°16' E 029°05'1 0.9
2017-Sep-11 02:27N 41°16' E 029°04'0 0.0
2017-Sep-10 21:48N 41°16' E 029°04'0 0.0
2017-Sep-10 21:15N 41°16' E 029°04'0 0.0
2017-Sep-10 20:57N 41°16' E 029°04'0 0.0
2017-Sep-10 20:30N 41°16' E 029°04'0 0.0
2017-Sep-10 19:00N 41°16' E 029°04'0 0.0
2017-Sep-10 18:30N 41°16' E 029°04'0 0.0
2017-Sep-10 17:30N 41°16' E 029°04'0 0.0
2017-Sep-10 16:57N 41°16' E 029°04'0 0.0
2017-Sep-10 16:09N 41°16' E 029°04'0 0.0
2017-Sep-10 16:00N 41°16' E 029°04'0 0.0
2017-Sep-10 15:24N 41°16' E 029°04'0 0.0
2017-Sep-10 14:57N 41°16' E 029°04'0 0.0
2017-Sep-10 14:00N 41°16' E 029°04'  
Track history (hours):
 
Tides and Currents Weather Stations Pressure Air Temp Water Temp Dewpoint Dewpoint Depression Visibility Wind Speed Wind Dir Waves Ship Positions

Catharina 1

Last reported at 2017-Sep-20 00:53 UTC. Time now 2017-Sep-24 03:35 UTC.
Position N 37°33' E 025°55'.

Length 85 m.

Type: Cargo ship. MMSI: 256686000.

Date/timePositionNaut miles runAvg speedWind from/ knotsBaromVisibWave heightAir tempDewpointWater temp
2017-Sep-20 00:53N 37°33' E 025°55'4 9.3
2017-Sep-20 00:30N 37°30' E 025°54'4 8.8
2017-Sep-20 00:01N 37°25' E 025°52'5 9.1
2017-Sep-19 23:31N 37°21' E 025°50'4 9.0
2017-Sep-19 23:01N 37°17' E 025°49'4 8.9
2017-Sep-19 22:31N 37°13' E 025°47'5 9.4
2017-Sep-19 22:01N 37°08' E 025°45'  
2017-Sep-12 23:51N 37°07' E 025°45'3 8.7
2017-Sep-12 23:30N 37°10' E 025°45'4 8.7
2017-Sep-12 23:00N 37°15' E 025°45'4 8.7
2017-Sep-12 22:30N 37°19' E 025°45'14 8.3
2017-Sep-12 20:48N 37°33' E 025°44'3 8.1
2017-Sep-12 20:29N 37°36' E 025°44'4 8.0
2017-Sep-12 20:00N 37°39' E 025°44'219 7.0
2017-Sep-11 12:42N 40°50' E 028°03'6 7.8
2017-Sep-11 11:59N 40°50' E 028°10'5 7.9
2017-Sep-11 11:24N 40°51' E 028°16'3 7.9
2017-Sep-11 11:00N 40°52' E 028°20'4 8.0
2017-Sep-11 10:29N 40°52' E 028°26'4 8.1
2017-Sep-11 10:00N 40°53' E 028°31'19 4.3
2017-Sep-11 05:29N 40°58' E 028°55'16 8.5
2017-Sep-11 03:33N 41°12' E 029°07'2 8.5
2017-Sep-11 03:22N 41°14' E 029°07'3 7.5
2017-Sep-11 03:00N 41°16' E 029°05'1 0.9
2017-Sep-11 02:27N 41°16' E 029°04'0 0.0
2017-Sep-10 21:48N 41°16' E 029°04'0 0.0
2017-Sep-10 21:15N 41°16' E 029°04'0 0.0
2017-Sep-10 20:57N 41°16' E 029°04'0 0.0
2017-Sep-10 20:30N 41°16' E 029°04'0 0.0
2017-Sep-10 19:00N 41°16' E 029°04'0 0.0
2017-Sep-10 18:30N 41°16' E 029°04'0 0.0
2017-Sep-10 17:30N 41°16' E 029°04'0 0.0
2017-Sep-10 16:57N 41°16' E 029°04'0 0.0
2017-Sep-10 16:09N 41°16' E 029°04'0 0.0
2017-Sep-10 16:00N 41°16' E 029°04'0 0.0
2017-Sep-10 15:24N 41°16' E 029°04'0 0.0
2017-Sep-10 14:57N 41°16' E 029°04'0 0.0
2017-Sep-10 14:00N 41°16' E 029°04'  

Dump ship's entire track history